KSHV/SHV METAR and TAF weather

Enter ICAO airport designator
Station Type Date Time Source
KSHV METAR 2020/04/03 22:56 UTC NOAA

KSHV 032256Z 15007KT 10SM FEW031 FEW055 SCT075 BKN280 23/16 A2992 RMK AO2 SLP131 T02330161


Station Type Date Time Source
KSHV Decoded METAR 2020/04/03 22:56 UTC NOAA

SHREVEPORT REGIONAL AIRPORT, LA, United States (KSHV) 32-27N 93-50W 80M
Apr 03, 2020 - 06:56 PM EDT / 2020.04.03 2256 UTC
Wind: from the SSE (150 degrees) at 8 MPH (7 KT):0
Visibility: 10 mile(s):0
Sky conditions: mostly cloudy
Temperature: 73.9 F (23.3 C)
Dew Point: 61.0 F (16.1 C)
Relative Humidity: 63%
Pressure (altimeter): 29.92 in. Hg (1013 hPa)
ob: KSHV 032256Z 15007KT 10SM FEW031 FEW055 SCT075 BKN280 23/16 A2992 RMK AO2 SLP131 T02330161
cycle: 23

Station Type Date Time Source
KSHV TAF 2020/04/03 20:58 UTC NOAA

TAF
AMD KSHV 031957Z 0320/0418 13007KT P6SM SCT025 OVC035
TEMPO 0321/0323 3SM -TSRA BR OVC025CB
FM032300 VRB06KT P6SM VCTS OVC040CB
FM040600 04003KT P6SM -TSRA OVC015CB
FM040900 08004KT 6SM -SHRA OVC007

Example: see airport list